sensor_id;sensor_type;location;lat;lon;timestamp;temperature;humidity
16032;DHT22;8120;48.308;8.914;2022-07-17T00:00:40;12.70;66.50
16032;DHT22;8120;48.308;8.914;2022-07-17T00:03:09;12.70;66.60
16032;DHT22;8120;48.308;8.914;2022-07-17T00:05:37;12.60;67.10
16032;DHT22;8120;48.308;8.914;2022-07-17T00:08:05;12.70;66.70
16032;DHT22;8120;48.308;8.914;2022-07-17T00:10:37;12.60;67.10
16032;DHT22;8120;48.308;8.914;2022-07-17T00:13:06;12.60;67.10
16032;DHT22;8120;48.308;8.914;2022-07-17T00:15:34;12.50;67.00
16032;DHT22;8120;48.308;8.914;2022-07-17T00:18:02;12.40;66.30
16032;DHT22;8120;48.308;8.914;2022-07-17T00:20:30;12.40;67.70
16032;DHT22;8120;48.308;8.914;2022-07-17T00:22:59;12.40;67.90
16032;DHT22;8120;48.308;8.914;2022-07-17T00:25:27;12.40;67.80
16032;DHT22;8120;48.308;8.914;2022-07-17T00:27:56;12.40;67.30
16032;DHT22;8120;48.308;8.914;2022-07-17T00:30:24;12.50;67.70
16032;DHT22;8120;48.308;8.914;2022-07-17T00:32:52;12.40;67.50
16032;DHT22;8120;48.308;8.914;2022-07-17T00:35:21;12.40;67.90
16032;DHT22;8120;48.308;8.914;2022-07-17T00:37:49;12.40;67.40
16032;DHT22;8120;48.308;8.914;2022-07-17T00:40:21;12.30;67.60
16032;DHT22;8120;48.308;8.914;2022-07-17T00:42:50;12.20;68.50
16032;DHT22;8120;48.308;8.914;2022-07-17T00:45:20;12.20;68.50
16032;DHT22;8120;48.308;8.914;2022-07-17T00:47:54;12.20;68.30
16032;DHT22;8120;48.308;8.914;2022-07-17T00:50:24;12.20;68.00
16032;DHT22;8120;48.308;8.914;2022-07-17T00:52:53;12.20;68.50
16032;DHT22;8120;48.308;8.914;2022-07-17T00:55:22;12.20;68.40
16032;DHT22;8120;48.308;8.914;2022-07-17T00:58:11;12.10;68.60
16032;DHT22;8120;48.308;8.914;2022-07-17T01:00:41;11.90;69.00
16032;DHT22;8120;48.308;8.914;2022-07-17T01:03:09;11.90;69.80
16032;DHT22;8120;48.308;8.914;2022-07-17T01:05:37;11.80;69.90
16032;DHT22;8120;48.308;8.914;2022-07-17T01:08:06;11.80;70.20
16032;DHT22;8120;48.308;8.914;2022-07-17T01:10:34;11.70;70.20
16032;DHT22;8120;48.308;8.914;2022-07-17T01:13:03;11.70;70.50
16032;DHT22;8120;48.308;8.914;2022-07-17T01:15:31;11.70;70.10
16032;DHT22;8120;48.308;8.914;2022-07-17T01:18:04;11.80;70.10
16032;DHT22;8120;48.308;8.914;2022-07-17T01:20:34;11.80;69.90
16032;DHT22;8120;48.308;8.914;2022-07-17T01:23:04;11.70;70.10
16032;DHT22;8120;48.308;8.914;2022-07-17T01:25:32;11.70;70.10
16032;DHT22;8120;48.308;8.914;2022-07-17T01:28:01;11.70;70.60
16032;DHT22;8120;48.308;8.914;2022-07-17T01:30:29;11.70;70.40
16032;DHT22;8120;48.308;8.914;2022-07-17T01:32:57;11.70;70.40
16032;DHT22;8120;48.308;8.914;2022-07-17T01:35:26;11.70;70.30
16032;DHT22;8120;48.308;8.914;2022-07-17T01:37:54;11.60;70.40
16032;DHT22;8120;48.308;8.914;2022-07-17T01:40:23;11.60;69.80
16032;DHT22;8120;48.308;8.914;2022-07-17T01:42:51;11.50;69.20
16032;DHT22;8120;48.308;8.914;2022-07-17T01:45:19;11.40;70.70
16032;DHT22;8120;48.308;8.914;2022-07-17T01:47:47;11.40;70.50
16032;DHT22;8120;48.308;8.914;2022-07-17T01:50:15;11.40;71.00
16032;DHT22;8120;48.308;8.914;2022-07-17T01:52:44;11.30;71.50
16032;DHT22;8120;48.308;8.914;2022-07-17T01:55:14;11.20;70.80
16032;DHT22;8120;48.308;8.914;2022-07-17T01:57:44;11.10;72.40
16032;DHT22;8120;48.308;8.914;2022-07-17T02:00:14;11.20;72.70
16032;DHT22;8120;48.308;8.914;2022-07-17T02:02:44;11.30;72.10
16032;DHT22;8120;48.308;8.914;2022-07-17T02:05:12;11.20;71.40
16032;DHT22;8120;48.308;8.914;2022-07-17T02:07:40;11.20;71.80
16032;DHT22;8120;48.308;8.914;2022-07-17T02:10:10;11.20;71.80
16032;DHT22;8120;48.308;8.914;2022-07-17T02:12:42;11.00;72.10
16032;DHT22;8120;48.308;8.914;2022-07-17T02:15:11;11.00;72.60
16032;DHT22;8120;48.308;8.914;2022-07-17T02:17:40;11.00;72.90
16032;DHT22;8120;48.308;8.914;2022-07-17T02:20:09;10.90;72.50
16032;DHT22;8120;48.308;8.914;2022-07-17T02:22:38;10.90;72.30
16032;DHT22;8120;48.308;8.914;2022-07-17T02:25:08;10.90;71.70
16032;DHT22;8120;48.308;8.914;2022-07-17T02:27:36;10.90;72.90
16032;DHT22;8120;48.308;8.914;2022-07-17T02:30:08;10.90;73.00
16032;DHT22;8120;48.308;8.914;2022-07-17T02:32:36;10.90;72.90
16032;DHT22;8120;48.308;8.914;2022-07-17T02:35:06;10.90;72.00
16032;DHT22;8120;48.308;8.914;2022-07-17T02:37:34;10.90;73.20
16032;DHT22;8120;48.308;8.914;2022-07-17T02:40:03;10.80;73.40
16032;DHT22;8120;48.308;8.914;2022-07-17T02:42:31;10.80;73.20
16032;DHT22;8120;48.308;8.914;2022-07-17T02:44:59;10.80;73.10
16032;DHT22;8120;48.308;8.914;2022-07-17T02:47:30;10.70;73.20
16032;DHT22;8120;48.308;8.914;2022-07-17T02:49:59;10.70;73.20
16032;DHT22;8120;48.308;8.914;2022-07-17T02:52:28;10.70;73.10
16032;DHT22;8120;48.308;8.914;2022-07-17T02:54:56;10.60;73.10
16032;DHT22;8120;48.308;8.914;2022-07-17T02:57:23;10.60;73.90
16032;DHT22;8120;48.308;8.914;2022-07-17T02:59:51;10.70;73.00
16032;DHT22;8120;48.308;8.914;2022-07-17T03:02:19;10.60;73.60
16032;DHT22;8120;48.308;8.914;2022-07-17T03:04:48;10.50;73.70
16032;DHT22;8120;48.308;8.914;2022-07-17T03:07:16;10.50;73.50
16032;DHT22;8120;48.308;8.914;2022-07-17T03:09:44;10.40;74.70
16032;DHT22;8120;48.308;8.914;2022-07-17T03:12:12;10.40;74.40
16032;DHT22;8120;48.308;8.914;2022-07-17T03:14:40;10.40;73.90
16032;DHT22;8120;48.308;8.914;2022-07-17T03:17:08;10.30;74.20
16032;DHT22;8120;48.308;8.914;2022-07-17T03:19:36;10.20;75.10
16032;DHT22;8120;48.308;8.914;2022-07-17T03:22:05;10.20;74.70
16032;DHT22;8120;48.308;8.914;2022-07-17T03:24:33;10.20;75.10
16032;DHT22;8120;48.308;8.914;2022-07-17T03:27:01;10.20;74.70
16032;DHT22;8120;48.308;8.914;2022-07-17T03:29:29;10.20;75.20
16032;DHT22;8120;48.308;8.914;2022-07-17T03:31:57;10.20;74.90
16032;DHT22;8120;48.308;8.914;2022-07-17T03:34:25;10.20;75.10
16032;DHT22;8120;48.308;8.914;2022-07-17T03:36:53;10.20;75.30
16032;DHT22;8120;48.308;8.914;2022-07-17T03:39:22;10.20;75.60
16032;DHT22;8120;48.308;8.914;2022-07-17T03:41:50;10.20;75.00
16032;DHT22;8120;48.308;8.914;2022-07-17T03:44:18;10.20;76.00
16032;DHT22;8120;48.308;8.914;2022-07-17T03:46:46;10.10;75.40
16032;DHT22;8120;48.308;8.914;2022-07-17T03:49:14;10.20;75.10
16032;DHT22;8120;48.308;8.914;2022-07-17T03:51:42;10.10;75.20
16032;DHT22;8120;48.308;8.914;2022-07-17T03:54:10;10.10;75.80
16032;DHT22;8120;48.308;8.914;2022-07-17T03:56:39;10.20;75.50
16032;DHT22;8120;48.308;8.914;2022-07-17T03:59:07;10.10;75.30
16032;DHT22;8120;48.308;8.914;2022-07-17T04:01:35;10.10;75.30
16032;DHT22;8120;48.308;8.914;2022-07-17T04:04:04;10.30;75.10
16032;DHT22;8120;48.308;8.914;2022-07-17T04:06:32;10.90;73.00
16032;DHT22;8120;48.308;8.914;2022-07-17T04:08:59;11.40;70.40
16032;DHT22;8120;48.308;8.914;2022-07-17T04:11:27;11.90;68.40
16032;DHT22;8120;48.308;8.914;2022-07-17T04:13:57;12.20;67.30
16032;DHT22;8120;48.308;8.914;2022-07-17T04:16:25;12.50;66.60
16032;DHT22;8120;48.308;8.914;2022-07-17T04:18:53;12.90;65.80
16032;DHT22;8120;48.308;8.914;2022-07-17T04:21:21;13.30;63.90
16032;DHT22;8120;48.308;8.914;2022-07-17T04:23:49;13.50;63.40
16032;DHT22;8120;48.308;8.914;2022-07-17T04:26:17;13.80;62.10
16032;DHT22;8120;48.308;8.914;2022-07-17T04:28:45;14.00;61.80
16032;DHT22;8120;48.308;8.914;2022-07-17T04:31:14;14.10;61.70
16032;DHT22;8120;48.308;8.914;2022-07-17T04:33:43;14.40;60.60
16032;DHT22;8120;48.308;8.914;2022-07-17T04:36:10;14.90;59.40
16032;DHT22;8120;48.308;8.914;2022-07-17T04:38:38;14.90;59.60
16032;DHT22;8120;48.308;8.914;2022-07-17T04:41:06;15.60;57.20
16032;DHT22;8120;48.308;8.914;2022-07-17T04:43:34;15.70;57.00
16032;DHT22;8120;48.308;8.914;2022-07-17T04:46:02;15.40;57.70
16032;DHT22;8120;48.308;8.914;2022-07-17T04:48:32;15.60;57.30
16032;DHT22;8120;48.308;8.914;2022-07-17T04:50:59;15.90;56.70
16032;DHT22;8120;48.308;8.914;2022-07-17T04:53:27;16.60;55.30
16032;DHT22;8120;48.308;8.914;2022-07-17T04:55:55;16.60;55.60
16032;DHT22;8120;48.308;8.914;2022-07-17T04:58:23;16.20;55.60
16032;DHT22;8120;48.308;8.914;2022-07-17T05:00:51;16.20;56.50
16032;DHT22;8120;48.308;8.914;2022-07-17T05:03:19;17.00;53.90
16032;DHT22;8120;48.308;8.914;2022-07-17T05:05:48;16.80;54.10
16032;DHT22;8120;48.308;8.914;2022-07-17T05:08:16;16.90;54.80
16032;DHT22;8120;48.308;8.914;2022-07-17T05:10:45;17.30;53.20
16032;DHT22;8120;48.308;8.914;2022-07-17T05:13:13;17.50;52.50
16032;DHT22;8120;48.308;8.914;2022-07-17T05:15:41;17.70;53.00
16032;DHT22;8120;48.308;8.914;2022-07-17T05:18:09;17.90;52.60
16032;DHT22;8120;48.308;8.914;2022-07-17T05:20:38;18.70;50.60
16032;DHT22;8120;48.308;8.914;2022-07-17T05:23:08;19.30;49.70
16032;DHT22;8120;48.308;8.914;2022-07-17T05:25:36;19.70;48.80
16032;DHT22;8120;48.308;8.914;2022-07-17T05:28:04;19.20;49.70
16032;DHT22;8120;48.308;8.914;2022-07-17T05:30:32;19.50;49.20
16032;DHT22;8120;48.308;8.914;2022-07-17T05:33:00;18.90;48.30
16032;DHT22;8120;48.308;8.914;2022-07-17T05:35:28;18.70;48.80
16032;DHT22;8120;48.308;8.914;2022-07-17T05:37:56;19.20;48.30
16032;DHT22;8120;48.308;8.914;2022-07-17T05:40:25;18.60;48.60
16032;DHT22;8120;48.308;8.914;2022-07-17T05:42:53;18.10;50.70
16032;DHT22;8120;48.308;8.914;2022-07-17T05:45:21;16.70;54.70
16032;DHT22;8120;48.308;8.914;2022-07-17T05:47:49;17.00;54.80
16032;DHT22;8120;48.308;8.914;2022-07-17T05:50:17;17.30;53.60
16032;DHT22;8120;48.308;8.914;2022-07-17T05:52:45;17.00;53.80
16032;DHT22;8120;48.308;8.914;2022-07-17T05:55:13;17.20;52.70
16032;DHT22;8120;48.308;8.914;2022-07-17T05:57:42;18.00;52.00
16032;DHT22;8120;48.308;8.914;2022-07-17T06:00:11;18.30;51.20
16032;DHT22;8120;48.308;8.914;2022-07-17T06:02:38;18.80;49.80
16032;DHT22;8120;48.308;8.914;2022-07-17T06:05:07;18.60;50.70
16032;DHT22;8120;48.308;8.914;2022-07-17T06:07:35;18.90;50.00
16032;DHT22;8120;48.308;8.914;2022-07-17T06:10:04;19.20;48.40
16032;DHT22;8120;48.308;8.914;2022-07-17T06:12:32;18.90;49.00
16032;DHT22;8120;48.308;8.914;2022-07-17T06:15:01;18.60;50.20
16032;DHT22;8120;48.308;8.914;2022-07-17T06:17:30;18.40;49.60
16032;DHT22;8120;48.308;8.914;2022-07-17T06:19:58;18.50;50.40
16032;DHT22;8120;48.308;8.914;2022-07-17T06:22:26;18.80;49.50
16032;DHT22;8120;48.308;8.914;2022-07-17T06:24:53;19.30;48.90
16032;DHT22;8120;48.308;8.914;2022-07-17T06:27:21;20.00;47.60
16032;DHT22;8120;48.308;8.914;2022-07-17T06:29:49;20.80;45.60
16032;DHT22;8120;48.308;8.914;2022-07-17T06:32:24;20.70;46.00
16032;DHT22;8120;48.308;8.914;2022-07-17T06:34:51;19.70;48.10
16032;DHT22;8120;48.308;8.914;2022-07-17T06:37:19;19.90;48.10
16032;DHT22;8120;48.308;8.914;2022-07-17T06:39:47;19.60;48.10
16032;DHT22;8120;48.308;8.914;2022-07-17T06:42:15;19.00;50.50
16032;DHT22;8120;48.308;8.914;2022-07-17T06:44:43;19.80;48.30
16032;DHT22;8120;48.308;8.914;2022-07-17T06:47:11;20.30;47.20
16032;DHT22;8120;48.308;8.914;2022-07-17T06:49:40;20.60;47.10
16032;DHT22;8120;48.308;8.914;2022-07-17T06:52:08;21.10;46.90
16032;DHT22;8120;48.308;8.914;2022-07-17T06:54:36;21.30;45.50
16032;DHT22;8120;48.308;8.914;2022-07-17T06:57:04;21.90;44.80
16032;DHT22;8120;48.308;8.914;2022-07-17T06:59:32;22.50;43.60
16032;DHT22;8120;48.308;8.914;2022-07-17T07:02:00;21.70;45.40
16032;DHT22;8120;48.308;8.914;2022-07-17T07:04:28;22.80;43.20
16032;DHT22;8120;48.308;8.914;2022-07-17T07:06:57;23.10;43.20
16032;DHT22;8120;48.308;8.914;2022-07-17T07:09:25;23.50;42.60
16032;DHT22;8120;48.308;8.914;2022-07-17T07:11:53;23.00;43.20
16032;DHT22;8120;48.308;8.914;2022-07-17T07:14:21;22.40;44.30
16032;DHT22;8120;48.308;8.914;2022-07-17T07:16:49;22.10;45.10
16032;DHT22;8120;48.308;8.914;2022-07-17T07:19:17;22.90;43.50
16032;DHT22;8120;48.308;8.914;2022-07-17T07:21:45;23.20;44.00
16032;DHT22;8120;48.308;8.914;2022-07-17T07:24:14;22.70;43.90
16032;DHT22;8120;48.308;8.914;2022-07-17T07:26:42;22.30;44.40
16032;DHT22;8120;48.308;8.914;2022-07-17T07:29:10;22.90;43.20
16032;DHT22;8120;48.308;8.914;2022-07-17T07:31:43;23.30;41.50
16032;DHT22;8120;48.308;8.914;2022-07-17T07:34:11;23.30;42.10
16032;DHT22;8120;48.308;8.914;2022-07-17T07:36:38;23.30;42.10
16032;DHT22;8120;48.308;8.914;2022-07-17T07:39:06;23.40;42.20
16032;DHT22;8120;48.308;8.914;2022-07-17T07:41:36;23.70;41.90
16032;DHT22;8120;48.308;8.914;2022-07-17T07:44:04;23.90;41.90
16032;DHT22;8120;48.308;8.914;2022-07-17T07:46:32;23.60;41.90
16032;DHT22;8120;48.308;8.914;2022-07-17T07:49:01;23.50;41.90
16032;DHT22;8120;48.308;8.914;2022-07-17T07:51:29;23.80;41.40
16032;DHT22;8120;48.308;8.914;2022-07-17T07:54:16;24.00;40.80
16032;DHT22;8120;48.308;8.914;2022-07-17T07:56:46;23.90;41.50
16032;DHT22;8120;48.308;8.914;2022-07-17T07:59:14;24.20;41.20
16032;DHT22;8120;48.308;8.914;2022-07-17T08:01:41;24.10;41.10
16032;DHT22;8120;48.308;8.914;2022-07-17T08:04:09;24.30;41.60
16032;DHT22;8120;48.308;8.914;2022-07-17T08:06:37;24.20;40.80
16032;DHT22;8120;48.308;8.914;2022-07-17T08:09:05;24.40;41.00
16032;DHT22;8120;48.308;8.914;2022-07-17T08:11:34;24.20;40.50
16032;DHT22;8120;48.308;8.914;2022-07-17T08:14:03;23.60;41.50
16032;DHT22;8120;48.308;8.914;2022-07-17T08:16:42;23.60;42.80
16032;DHT22;8120;48.308;8.914;2022-07-17T08:19:09;24.20;41.30
16032;DHT22;8120;48.308;8.914;2022-07-17T08:21:38;24.40;41.00
16032;DHT22;8120;48.308;8.914;2022-07-17T08:24:06;24.30;41.80
16032;DHT22;8120;48.308;8.914;2022-07-17T08:26:34;24.60;40.90
16032;DHT22;8120;48.308;8.914;2022-07-17T08:29:03;24.80;40.20
16032;DHT22;8120;48.308;8.914;2022-07-17T08:31:31;24.60;41.40
16032;DHT22;8120;48.308;8.914;2022-07-17T08:33:59;24.70;41.70
16032;DHT22;8120;48.308;8.914;2022-07-17T08:36:28;25.10;39.60
16032;DHT22;8120;48.308;8.914;2022-07-17T08:38:57;24.60;39.90
16032;DHT22;8120;48.308;8.914;2022-07-17T08:41:26;24.40;40.60
16032;DHT22;8120;48.308;8.914;2022-07-17T08:43:55;24.50;40.60
16032;DHT22;8120;48.308;8.914;2022-07-17T08:46:26;24.70;40.20
16032;DHT22;8120;48.308;8.914;2022-07-17T08:48:57;25.00;38.30
16032;DHT22;8120;48.308;8.914;2022-07-17T08:51:26;25.00;38.60
16032;DHT22;8120;48.308;8.914;2022-07-17T08:53:55;24.60;39.20
16032;DHT22;8120;48.308;8.914;2022-07-17T08:56:24;24.50;38.70
16032;DHT22;8120;48.308;8.914;2022-07-17T08:58:53;24.60;40.50
16032;DHT22;8120;48.308;8.914;2022-07-17T09:01:22;24.70;40.20
16032;DHT22;8120;48.308;8.914;2022-07-17T09:03:57;24.90;39.60
16032;DHT22;8120;48.308;8.914;2022-07-17T09:06:27;24.80;39.40
16032;DHT22;8120;48.308;8.914;2022-07-17T09:09:03;24.80;38.80
16032;DHT22;8120;48.308;8.914;2022-07-17T09:11:41;24.80;38.90
16032;DHT22;8120;48.308;8.914;2022-07-17T09:14:10;25.00;38.00
16032;DHT22;8120;48.308;8.914;2022-07-17T09:16:48;25.00;37.80
16032;DHT22;8120;48.308;8.914;2022-07-17T09:19:26;25.00;36.30
16032;DHT22;8120;48.308;8.914;2022-07-17T09:22:09;24.80;36.80
16032;DHT22;8120;48.308;8.914;2022-07-17T09:24:43;25.10;36.40
16032;DHT22;8120;48.308;8.914;2022-07-17T09:27:13;24.60;37.30
16032;DHT22;8120;48.308;8.914;2022-07-17T09:29:54;25.00;37.10
16032;DHT22;8120;48.308;8.914;2022-07-17T09:32:23;25.30;36.60
16032;DHT22;8120;48.308;8.914;2022-07-17T09:34:54;25.20;36.30
16032;DHT22;8120;48.308;8.914;2022-07-17T09:37:23;25.30;37.00
16032;DHT22;8120;48.308;8.914;2022-07-17T09:39:52;25.50;36.60
16032;DHT22;8120;48.308;8.914;2022-07-17T09:42:23;25.70;36.70
16032;DHT22;8120;48.308;8.914;2022-07-17T09:44:58;25.40;36.50
16032;DHT22;8120;48.308;8.914;2022-07-17T09:47:27;25.10;37.10
16032;DHT22;8120;48.308;8.914;2022-07-17T09:49:57;25.10;37.20
16032;DHT22;8120;48.308;8.914;2022-07-17T09:52:28;25.00;37.60
16032;DHT22;8120;48.308;8.914;2022-07-17T09:54:58;24.80;37.50
16032;DHT22;8120;48.308;8.914;2022-07-17T09:57:47;25.10;36.80
16032;DHT22;8120;48.308;8.914;2022-07-17T10:00:16;25.30;37.00
16032;DHT22;8120;48.308;8.914;2022-07-17T10:02:50;25.30;36.50
16032;DHT22;8120;48.308;8.914;2022-07-17T10:05:20;25.20;37.20
16032;DHT22;8120;48.308;8.914;2022-07-17T10:07:48;25.80;37.20
16032;DHT22;8120;48.308;8.914;2022-07-17T10:10:17;25.50;36.60
16032;DHT22;8120;48.308;8.914;2022-07-17T10:12:47;25.60;37.10
16032;DHT22;8120;48.308;8.914;2022-07-17T10:15:16;26.00;37.10
16032;DHT22;8120;48.308;8.914;2022-07-17T10:17:47;25.50;36.20
16032;DHT22;8120;48.308;8.914;2022-07-17T10:20:25;25.50;36.60
16032;DHT22;8120;48.308;8.914;2022-07-17T10:22:53;25.60;36.50
16032;DHT22;8120;48.308;8.914;2022-07-17T10:25:21;25.70;36.80
16032;DHT22;8120;48.308;8.914;2022-07-17T10:27:51;25.40;36.70
16032;DHT22;8120;48.308;8.914;2022-07-17T10:30:23;25.40;37.50
16032;DHT22;8120;48.308;8.914;2022-07-17T10:32:54;25.40;36.80
16032;DHT22;8120;48.308;8.914;2022-07-17T10:35:22;25.60;37.00
16032;DHT22;8120;48.308;8.914;2022-07-17T10:37:52;25.60;36.60
16032;DHT22;8120;48.308;8.914;2022-07-17T10:40:22;25.70;36.60
16032;DHT22;8120;48.308;8.914;2022-07-17T10:42:53;25.60;36.70
16032;DHT22;8120;48.308;8.914;2022-07-17T10:45:25;25.70;36.70
16032;DHT22;8120;48.308;8.914;2022-07-17T10:47:56;25.50;37.40
16032;DHT22;8120;48.308;8.914;2022-07-17T10:50:30;25.90;36.30
16032;DHT22;8120;48.308;8.914;2022-07-17T10:53:11;26.10;35.70
16032;DHT22;8120;48.308;8.914;2022-07-17T10:55:48;26.30;36.00
16032;DHT22;8120;48.308;8.914;2022-07-17T10:58:21;25.80;36.70
16032;DHT22;8120;48.308;8.914;2022-07-17T11:01:01;25.70;36.80
16032;DHT22;8120;48.308;8.914;2022-07-17T11:03:30;26.00;36.20
16032;DHT22;8120;48.308;8.914;2022-07-17T11:06:23;26.10;36.40
16032;DHT22;8120;48.308;8.914;2022-07-17T11:08:55;26.00;36.00
16032;DHT22;8120;48.308;8.914;2022-07-17T11:11:36;25.90;36.40
16032;DHT22;8120;48.308;8.914;2022-07-17T11:14:12;26.00;35.90
16032;DHT22;8120;48.308;8.914;2022-07-17T11:16:47;26.10;35.50
16032;DHT22;8120;48.308;8.914;2022-07-17T11:19:22;26.10;35.60
16032;DHT22;8120;48.308;8.914;2022-07-17T11:21:52;25.80;36.40
16032;DHT22;8120;48.308;8.914;2022-07-17T11:24:22;26.00;36.10
16032;DHT22;8120;48.308;8.914;2022-07-17T11:26:52;26.30;36.60
16032;DHT22;8120;48.308;8.914;2022-07-17T11:29:20;26.70;35.50
16032;DHT22;8120;48.308;8.914;2022-07-17T11:31:54;26.10;35.60
16032;DHT22;8120;48.308;8.914;2022-07-17T11:34:24;26.00;35.40
16032;DHT22;8120;48.308;8.914;2022-07-17T11:36:59;26.40;35.60
16032;DHT22;8120;48.308;8.914;2022-07-17T11:39:37;26.40;35.50
16032;DHT22;8120;48.308;8.914;2022-07-17T11:42:07;26.20;35.90
16032;DHT22;8120;48.308;8.914;2022-07-17T11:44:36;26.60;34.80
16032;DHT22;8120;48.308;8.914;2022-07-17T11:47:04;26.40;35.00
16032;DHT22;8120;48.308;8.914;2022-07-17T11:49:35;26.20;35.50
16032;DHT22;8120;48.308;8.914;2022-07-17T11:52:08;25.90;35.00
16032;DHT22;8120;48.308;8.914;2022-07-17T11:54:45;26.20;34.80
16032;DHT22;8120;48.308;8.914;2022-07-17T11:57:14;26.50;34.30
16032;DHT22;8120;48.308;8.914;2022-07-17T11:59:42;26.60;34.00
16032;DHT22;8120;48.308;8.914;2022-07-17T12:02:13;26.70;34.20
16032;DHT22;8120;48.308;8.914;2022-07-17T12:04:52;26.40;34.30
16032;DHT22;8120;48.308;8.914;2022-07-17T12:07:21;26.30;34.80
16032;DHT22;8120;48.308;8.914;2022-07-17T12:09:52;26.40;34.80
16032;DHT22;8120;48.308;8.914;2022-07-17T12:12:21;26.50;34.90
16032;DHT22;8120;48.308;8.914;2022-07-17T12:14:50;26.90;34.10
16032;DHT22;8120;48.308;8.914;2022-07-17T12:17:19;26.80;34.40
16032;DHT22;8120;48.308;8.914;2022-07-17T12:19:48;26.80;34.20
16032;DHT22;8120;48.308;8.914;2022-07-17T12:22:17;26.90;34.30
16032;DHT22;8120;48.308;8.914;2022-07-17T12:24:46;26.90;34.10
16032;DHT22;8120;48.308;8.914;2022-07-17T12:27:16;26.80;34.20
16032;DHT22;8120;48.308;8.914;2022-07-17T12:29:45;27.00;34.30
16032;DHT22;8120;48.308;8.914;2022-07-17T12:32:14;26.80;34.50
16032;DHT22;8120;48.308;8.914;2022-07-17T12:34:44;26.90;34.50
16032;DHT22;8120;48.308;8.914;2022-07-17T12:37:13;27.00;34.10
16032;DHT22;8120;48.308;8.914;2022-07-17T12:39:40;26.90;34.10
16032;DHT22;8120;48.308;8.914;2022-07-17T12:42:08;26.60;34.20
16032;DHT22;8120;48.308;8.914;2022-07-17T12:44:38;26.80;34.40
16032;DHT22;8120;48.308;8.914;2022-07-17T12:47:06;26.60;34.60
16032;DHT22;8120;48.308;8.914;2022-07-17T12:49:34;26.70;35.20
16032;DHT22;8120;48.308;8.914;2022-07-17T12:52:02;26.90;34.50
16032;DHT22;8120;48.308;8.914;2022-07-17T12:54:30;26.80;34.20
16032;DHT22;8120;48.308;8.914;2022-07-17T12:56:58;27.00;34.30
16032;DHT22;8120;48.308;8.914;2022-07-17T12:59:26;26.90;34.50
16032;DHT22;8120;48.308;8.914;2022-07-17T13:01:55;26.70;34.50
16032;DHT22;8120;48.308;8.914;2022-07-17T13:04:24;26.90;34.90
16032;DHT22;8120;48.308;8.914;2022-07-17T13:06:52;27.00;34.80
16032;DHT22;8120;48.308;8.914;2022-07-17T13:09:20;27.10;34.10
16032;DHT22;8120;48.308;8.914;2022-07-17T13:11:48;26.90;34.80
16032;DHT22;8120;48.308;8.914;2022-07-17T13:14:18;27.00;34.30
16032;DHT22;8120;48.308;8.914;2022-07-17T13:16:46;27.20;34.60
16032;DHT22;8120;48.308;8.914;2022-07-17T13:19:16;27.30;34.20
16032;DHT22;8120;48.308;8.914;2022-07-17T13:21:44;27.80;33.90
16032;DHT22;8120;48.308;8.914;2022-07-17T13:24:12;27.80;33.20
16032;DHT22;8120;48.308;8.914;2022-07-17T13:26:40;27.60;33.20
16032;DHT22;8120;48.308;8.914;2022-07-17T13:29:07;27.30;34.00
16032;DHT22;8120;48.308;8.914;2022-07-17T13:31:35;27.30;33.70
16032;DHT22;8120;48.308;8.914;2022-07-17T13:34:03;27.40;34.10
16032;DHT22;8120;48.308;8.914;2022-07-17T13:36:33;27.40;33.80
16032;DHT22;8120;48.308;8.914;2022-07-17T13:39:01;27.30;33.70
16032;DHT22;8120;48.308;8.914;2022-07-17T13:41:30;27.70;33.60
16032;DHT22;8120;48.308;8.914;2022-07-17T13:43:58;27.90;33.00
16032;DHT22;8120;48.308;8.914;2022-07-17T13:46:34;28.10;32.70
16032;DHT22;8120;48.308;8.914;2022-07-17T13:49:02;27.80;32.80
16032;DHT22;8120;48.308;8.914;2022-07-17T13:51:30;27.60;33.20
16032;DHT22;8120;48.308;8.914;2022-07-17T13:54:00;27.30;33.60
16032;DHT22;8120;48.308;8.914;2022-07-17T13:56:28;27.50;33.90
16032;DHT22;8120;48.308;8.914;2022-07-17T13:58:56;27.40;33.60
16032;DHT22;8120;48.308;8.914;2022-07-17T14:01:25;27.40;33.60
16032;DHT22;8120;48.308;8.914;2022-07-17T14:03:54;27.50;32.60
16032;DHT22;8120;48.308;8.914;2022-07-17T14:06:22;27.60;33.10
16032;DHT22;8120;48.308;8.914;2022-07-17T14:08:50;27.40;33.40
16032;DHT22;8120;48.308;8.914;2022-07-17T14:11:19;27.50;32.80
16032;DHT22;8120;48.308;8.914;2022-07-17T14:13:47;27.60;32.70
16032;DHT22;8120;48.308;8.914;2022-07-17T14:16:16;27.80;32.70
16032;DHT22;8120;48.308;8.914;2022-07-17T14:18:45;27.40;32.50
16032;DHT22;8120;48.308;8.914;2022-07-17T14:21:26;27.40;32.80
16032;DHT22;8120;48.308;8.914;2022-07-17T14:23:54;27.50;32.70
16032;DHT22;8120;48.308;8.914;2022-07-17T14:26:24;27.40;32.60
16032;DHT22;8120;48.308;8.914;2022-07-17T14:28:52;27.40;32.90
16032;DHT22;8120;48.308;8.914;2022-07-17T14:31:20;27.30;32.40
16032;DHT22;8120;48.308;8.914;2022-07-17T14:33:49;27.40;32.40
16032;DHT22;8120;48.308;8.914;2022-07-17T14:36:17;27.60;31.80
16032;DHT22;8120;48.308;8.914;2022-07-17T14:38:45;27.40;31.30
16032;DHT22;8120;48.308;8.914;2022-07-17T14:41:13;27.20;32.10
16032;DHT22;8120;48.308;8.914;2022-07-17T14:43:43;27.10;31.40
16032;DHT22;8120;48.308;8.914;2022-07-17T14:46:11;27.20;31.50
16032;DHT22;8120;48.308;8.914;2022-07-17T14:48:39;27.10;32.10
16032;DHT22;8120;48.308;8.914;2022-07-17T14:51:06;27.40;32.00
16032;DHT22;8120;48.308;8.914;2022-07-17T14:53:34;27.70;31.60
16032;DHT22;8120;48.308;8.914;2022-07-17T14:56:03;27.60;31.50
16032;DHT22;8120;48.308;8.914;2022-07-17T14:58:30;27.40;31.20
16032;DHT22;8120;48.308;8.914;2022-07-17T15:01:00;27.40;30.90
16032;DHT22;8120;48.308;8.914;2022-07-17T15:03:30;27.40;31.20
16032;DHT22;8120;48.308;8.914;2022-07-17T15:05:58;27.30;31.30
16032;DHT22;8120;48.308;8.914;2022-07-17T15:08:26;27.80;31.00
16032;DHT22;8120;48.308;8.914;2022-07-17T15:10:54;28.10;30.30
16032;DHT22;8120;48.308;8.914;2022-07-17T15:13:22;28.50;30.40
16032;DHT22;8120;48.308;8.914;2022-07-17T15:15:50;28.20;30.20
16032;DHT22;8120;48.308;8.914;2022-07-17T15:18:19;28.00;29.50
16032;DHT22;8120;48.308;8.914;2022-07-17T15:20:47;27.80;29.60
16032;DHT22;8120;48.308;8.914;2022-07-17T15:23:15;27.70;29.70
16032;DHT22;8120;48.308;8.914;2022-07-17T15:25:43;27.60;30.20
16032;DHT22;8120;48.308;8.914;2022-07-17T15:28:11;27.60;29.80
16032;DHT22;8120;48.308;8.914;2022-07-17T15:30:39;27.40;29.80
16032;DHT22;8120;48.308;8.914;2022-07-17T15:33:07;27.50;29.90
16032;DHT22;8120;48.308;8.914;2022-07-17T15:35:36;27.60;29.80
16032;DHT22;8120;48.308;8.914;2022-07-17T15:38:05;27.40;30.00
16032;DHT22;8120;48.308;8.914;2022-07-17T15:40:32;27.30;30.30
16032;DHT22;8120;48.308;8.914;2022-07-17T15:43:01;27.50;29.90
16032;DHT22;8120;48.308;8.914;2022-07-17T15:45:29;27.60;30.20
16032;DHT22;8120;48.308;8.914;2022-07-17T15:47:56;27.60;29.10
16032;DHT22;8120;48.308;8.914;2022-07-17T15:50:24;27.10;29.50
16032;DHT22;8120;48.308;8.914;2022-07-17T15:52:54;26.80;29.80
16032;DHT22;8120;48.308;8.914;2022-07-17T15:55:21;26.70;29.10
16032;DHT22;8120;48.308;8.914;2022-07-17T15:57:49;26.80;29.40